createdAt,value
2019-05-19T00:01:11.063Z,25.30
2019-05-19T00:04:01.339Z,40.43
2019-05-19T00:06:51.063Z,24.93
2019-05-19T00:09:40.776Z,28.30
2019-05-19T00:12:30.537Z,29.30
2019-05-19T00:15:20.565Z,28.30
2019-05-19T00:18:10.823Z,31.67
2019-05-19T00:21:00.799Z,26.90
2019-05-19T00:23:51.163Z,28.00
2019-05-19T00:26:41.098Z,29.97
2019-05-19T00:29:31.361Z,32.53
2019-05-19T00:32:21.922Z,27.90
2019-05-19T00:35:11.692Z,29.67
2019-05-19T00:38:01.314Z,27.23
2019-05-19T00:40:51.408Z,25.67
2019-05-19T00:43:41.454Z,32.10
2019-05-19T00:46:31.818Z,25.47
2019-05-19T00:49:21.722Z,26.00
2019-05-19T00:52:11.531Z,29.27
2019-05-19T00:55:00.994Z,29.43
2019-05-19T00:57:51.146Z,37.37
2019-05-19T01:00:41.281Z,32.60
2019-05-19T01:03:31.186Z,29.73
2019-05-19T01:06:21.375Z,31.27
2019-05-19T01:09:11.405Z,28.13
2019-05-19T01:12:01.583Z,34.27
2019-05-19T01:14:50.957Z,30.50
2019-05-19T01:17:40.696Z,28.40
2019-05-19T01:20:31.268Z,28.87
2019-05-19T01:23:20.907Z,33.97
2019-05-19T01:26:10.767Z,32.80
2019-05-19T01:29:00.464Z,36.10
2019-05-19T01:31:50.241Z,34.17
2019-05-19T01:34:40.233Z,37.03
2019-05-19T01:37:29.974Z,37.20
2019-05-19T01:40:19.850Z,32.47
2019-05-19T01:43:10.391Z,45.00
2019-05-19T01:46:00.174Z,44.90
2019-05-19T01:48:50.227Z,42.57
2019-05-19T01:51:40.826Z,53.37
2019-05-19T01:54:30.362Z,44.43
2019-05-19T01:57:19.895Z,44.03
2019-05-19T02:00:10.885Z,40.17
2019-05-19T02:03:00.183Z,39.53
2019-05-19T02:05:50.445Z,38.77
2019-05-19T02:08:40.622Z,35.10
2019-05-19T02:11:30.624Z,35.40
2019-05-19T02:14:20.824Z,32.83
2019-05-19T02:17:10.593Z,35.90
2019-05-19T02:20:00.589Z,32.23
2019-05-19T02:22:50.703Z,33.20
2019-05-19T02:25:40.780Z,37.83
2019-05-19T02:28:30.961Z,46.60
2019-05-19T02:31:20.333Z,39.90
2019-05-19T02:34:09.708Z,38.07
2019-05-19T02:36:59.483Z,43.57
2019-05-19T02:39:49.607Z,36.00
2019-05-19T02:42:43.063Z,40.07
2019-05-19T02:45:36.264Z,41.33
2019-05-19T02:48:28.652Z,39.70
2019-05-19T02:51:19.447Z,40.60
2019-05-19T02:54:10.169Z,47.83
2019-05-19T02:57:02.937Z,36.17
2019-05-19T02:59:53.800Z,42.43
2019-05-19T03:02:43.794Z,35.17
2019-05-19T03:05:33.655Z,35.20
2019-05-19T03:08:23.825Z,35.63
2019-05-19T03:11:13.480Z,34.10
2019-05-19T03:14:03.682Z,35.63
2019-05-19T03:16:53.306Z,34.70
2019-05-19T03:19:43.033Z,38.73
2019-05-19T03:22:33.280Z,37.43
2019-05-19T03:25:23.571Z,37.13
2019-05-19T03:28:13.151Z,34.33
2019-05-19T03:31:13.851Z,31.13
2019-05-19T03:34:03.842Z,35.47
2019-05-19T03:36:54.334Z,33.03
2019-05-19T03:39:44.502Z,38.33
2019-05-19T03:42:34.496Z,35.73
2019-05-19T03:45:24.408Z,33.03
2019-05-19T03:48:14.806Z,34.57
2019-05-19T03:51:04.634Z,36.93
2019-05-19T03:53:54.876Z,33.70
2019-05-19T03:56:44.465Z,33.50
2019-05-19T03:59:35.255Z,34.27
2019-05-19T04:02:25.446Z,36.90
2019-05-19T04:05:16.155Z,34.30
2019-05-19T04:08:06.334Z,34.40
2019-05-19T04:10:56.444Z,35.07
2019-05-19T04:13:46.225Z,34.60
2019-05-19T04:16:36.505Z,35.77
2019-05-19T04:19:26.140Z,37.47
2019-05-19T04:22:15.927Z,34.67
2019-05-19T04:25:07.412Z,33.57
2019-05-19T04:27:57.478Z,39.60
2019-05-19T04:30:47.549Z,32.07
2019-05-19T04:33:37.903Z,39.10
2019-05-19T04:36:27.762Z,33.47
2019-05-19T04:39:17.901Z,37.20
2019-05-19T04:42:08.106Z,40.27
2019-05-19T04:44:58.123Z,35.87
2019-05-19T04:47:48.202Z,43.23
2019-05-19T04:50:38.263Z,35.43
2019-05-19T04:53:28.404Z,31.60
2019-05-19T04:56:19.803Z,41.97
2019-05-19T04:59:10.406Z,34.90
2019-05-19T05:02:00.407Z,38.47
2019-05-19T05:04:51.798Z,36.67
2019-05-19T05:07:41.846Z,35.87
2019-05-19T05:10:31.351Z,38.03
2019-05-19T05:13:21.286Z,39.30
2019-05-19T05:16:11.380Z,34.53
2019-05-19T05:19:01.154Z,38.07
2019-05-19T05:21:51.429Z,36.20
2019-05-19T05:24:41.254Z,35.30
2019-05-19T05:27:31.199Z,32.17
2019-05-19T05:30:21.712Z,35.60
2019-05-19T05:33:11.494Z,33.37
2019-05-19T05:36:01.681Z,41.57
2019-05-19T05:38:51.656Z,33.57
2019-05-19T05:41:41.523Z,33.10
2019-05-19T05:44:31.608Z,35.60
2019-05-19T05:47:21.710Z,37.07
2019-05-19T05:50:11.409Z,36.03
2019-05-19T05:53:01.159Z,31.70
2019-05-19T05:55:50.984Z,33.97
2019-05-19T05:58:41.301Z,35.77
2019-05-19T06:01:31.113Z,36.43
2019-05-19T06:04:21.288Z,34.23
2019-05-19T06:07:11.494Z,33.73
2019-05-19T06:10:01.787Z,35.53
2019-05-19T06:12:54.868Z,32.40
2019-05-19T06:15:44.357Z,31.10
2019-05-19T06:18:34.488Z,36.30
2019-05-19T06:21:24.453Z,32.27
2019-05-19T06:24:14.691Z,33.70
2019-05-19T06:27:04.813Z,33.23
2019-05-19T06:29:54.543Z,32.10
2019-05-19T06:32:48.220Z,28.70
2019-05-19T06:35:38.357Z,30.30
2019-05-19T06:38:28.276Z,33.80
2019-05-19T06:41:18.368Z,33.13
2019-05-19T06:44:09.053Z,31.00
2019-05-19T06:46:58.839Z,29.57
2019-05-19T06:49:48.771Z,33.20
2019-05-19T06:52:38.868Z,31.17
2019-05-19T06:55:28.605Z,30.23
2019-05-19T06:58:18.573Z,35.60
2019-05-19T07:01:08.831Z,29.97
2019-05-19T07:03:59.075Z,32.40
2019-05-19T07:06:49.245Z,29.40
2019-05-19T07:09:39.128Z,33.70
2019-05-19T07:12:29.907Z,28.80
2019-05-19T07:15:20.301Z,29.13
2019-05-19T07:18:09.888Z,28.13
2019-05-19T07:20:59.571Z,28.80
2019-05-19T07:23:49.054Z,28.77
2019-05-19T07:26:38.551Z,29.90
2019-05-19T07:29:28.568Z,26.90
2019-05-19T07:32:18.691Z,27.10
2019-05-19T07:35:09.010Z,26.73
2019-05-19T07:37:58.874Z,22.60
2019-05-19T07:40:48.697Z,24.20
2019-05-19T07:43:38.854Z,23.60
2019-05-19T07:46:28.772Z,23.90
2019-05-19T07:49:18.491Z,23.40
2019-05-19T07:52:08.760Z,26.20
2019-05-19T07:54:59.243Z,20.83
2019-05-19T07:57:49.080Z,22.60
2019-05-19T08:00:38.577Z,24.53
2019-05-19T08:03:28.294Z,28.53
2019-05-19T08:06:18.468Z,20.20
2019-05-19T08:09:08.530Z,22.60
2019-05-19T08:11:58.341Z,21.37
2019-05-19T08:14:48.420Z,21.10
2019-05-19T08:17:38.380Z,22.40
2019-05-19T08:20:28.532Z,23.87
2019-05-19T08:23:18.700Z,20.00
2019-05-19T08:26:08.525Z,23.23
2019-05-19T08:28:58.432Z,22.93
2019-05-19T08:31:49.706Z,24.93
2019-05-19T08:34:39.822Z,24.47
2019-05-19T08:37:29.895Z,22.17
2019-05-19T08:40:19.967Z,19.67
2019-05-19T08:43:10.375Z,22.47
2019-05-19T08:46:00.535Z,21.13
2019-05-19T08:48:50.750Z,17.97
2019-05-19T08:51:40.640Z,22.43
2019-05-19T08:54:30.265Z,21.80
2019-05-19T08:57:20.161Z,22.83
2019-05-19T09:00:12.056Z,19.70
2019-05-19T09:03:03.200Z,17.50
2019-05-19T09:05:52.896Z,23.93
2019-05-19T09:08:42.873Z,19.57
2019-05-19T09:11:33.158Z,20.53
2019-05-19T09:14:23.172Z,21.77
2019-05-19T09:17:13.436Z,23.80
2019-05-19T09:20:04.022Z,19.60
2019-05-19T09:22:53.821Z,25.83
2019-05-19T09:25:44.321Z,18.97
2019-05-19T09:28:34.795Z,18.97
2019-05-19T09:31:25.092Z,20.10
2019-05-19T09:34:15.520Z,18.70
2019-05-19T09:37:05.864Z,20.00
2019-05-19T09:39:57.230Z,16.10
2019-05-19T09:42:47.515Z,16.37
2019-05-19T09:45:37.850Z,15.67
2019-05-19T09:48:28.289Z,18.40
2019-05-19T09:51:18.297Z,22.63
2019-05-19T09:54:08.400Z,21.43
2019-05-19T09:56:58.769Z,20.23
2019-05-19T09:59:49.261Z,16.63
2019-05-19T10:02:39.491Z,21.53
2019-05-19T10:05:29.701Z,19.73
2019-05-19T10:08:26.914Z,14.60
2019-05-19T10:11:45.617Z,15.20
2019-05-19T10:14:35.576Z,16.20
2019-05-19T10:17:25.687Z,22.67
2019-05-19T10:20:18.081Z,15.10
2019-05-19T10:23:08.213Z,15.60
2019-05-19T10:25:58.418Z,23.07
2019-05-19T10:28:48.207Z,15.07
2019-05-19T10:31:38.738Z,17.20
2019-05-19T10:34:29.053Z,13.90
2019-05-19T10:37:19.000Z,17.77
2019-05-19T10:40:10.117Z,15.50
2019-05-19T10:43:01.725Z,15.00
2019-05-19T10:46:01.665Z,13.23
2019-05-19T10:48:51.770Z,13.17
2019-05-19T10:51:42.357Z,16.73
2019-05-19T10:54:32.086Z,11.20
2019-05-19T10:57:26.888Z,12.00
2019-05-19T11:00:17.486Z,13.33
2019-05-19T11:03:07.631Z,13.10
2019-05-19T11:05:57.846Z,15.37
2019-05-19T11:08:48.999Z,12.00
2019-05-19T11:11:39.450Z,11.80
2019-05-19T11:14:29.434Z,13.20
2019-05-19T11:17:19.859Z,12.50
2019-05-19T11:20:10.280Z,11.60
2019-05-19T11:23:02.052Z,14.13
2019-05-19T11:25:52.329Z,11.87
2019-05-19T11:28:43.501Z,11.07
2019-05-19T11:31:33.428Z,11.37
2019-05-19T11:34:23.532Z,9.50
2019-05-19T11:37:13.383Z,10.87
2019-05-19T11:40:03.927Z,14.43
2019-05-19T11:42:55.286Z,11.50
2019-05-19T11:45:44.561Z,9.50
2019-05-19T11:48:34.549Z,10.33
2019-05-19T11:51:24.948Z,11.00
2019-05-19T11:54:15.609Z,11.23
2019-05-19T11:57:05.699Z,9.70
2019-05-19T11:59:55.747Z,9.10
2019-05-19T12:02:45.798Z,11.40
2019-05-19T12:05:36.108Z,11.17
2019-05-19T12:08:26.700Z,10.30
2019-05-19T12:11:17.022Z,11.13
2019-05-19T12:14:07.347Z,9.43
2019-05-19T12:16:57.195Z,9.20
2019-05-19T12:19:47.629Z,14.30
2019-05-19T12:22:37.679Z,10.90
2019-05-19T12:25:29.113Z,9.57
2019-05-19T12:28:19.303Z,13.17
2019-05-19T12:31:09.347Z,14.40
2019-05-19T12:33:59.654Z,9.83
2019-05-19T12:36:50.221Z,12.90
2019-05-19T12:39:40.608Z,21.10
2019-05-19T12:42:31.225Z,12.10
2019-05-19T12:45:22.548Z,10.40
2019-05-19T12:48:12.919Z,11.27
2019-05-19T12:51:03.020Z,13.43
2019-05-19T12:53:53.209Z,10.07
2019-05-19T12:56:42.917Z,11.37
2019-05-19T12:59:33.257Z,11.83
2019-05-19T13:02:23.085Z,11.20
2019-05-19T13:05:13.994Z,12.10
2019-05-19T13:08:04.078Z,9.43
2019-05-19T13:10:54.104Z,10.10
2019-05-19T13:13:44.121Z,12.93
2019-05-19T13:16:34.732Z,10.10
2019-05-19T13:19:24.694Z,10.03
2019-05-19T13:22:14.509Z,12.30
2019-05-19T13:25:04.407Z,11.10
2019-05-19T13:27:54.183Z,15.67
2019-05-19T13:30:44.366Z,11.33
2019-05-19T13:33:34.322Z,9.97
2019-05-19T13:36:24.032Z,10.40
2019-05-19T13:39:13.676Z,10.33
2019-05-19T13:42:04.436Z,12.47
2019-05-19T13:44:54.610Z,9.17
2019-05-19T13:47:44.347Z,9.07
2019-05-19T13:50:35.664Z,9.00
2019-05-19T13:53:25.692Z,10.10
2019-05-19T13:56:15.799Z,9.03
2019-05-19T13:59:05.843Z,9.80
2019-05-19T14:01:55.324Z,12.63
2019-05-19T14:04:45.187Z,8.17
2019-05-19T14:07:35.386Z,26.63
2019-05-19T14:10:25.158Z,11.27
2019-05-19T14:13:15.160Z,14.47
2019-05-19T14:16:06.006Z,12.50
2019-05-19T14:18:55.640Z,10.70
2019-05-19T14:21:45.799Z,12.50
2019-05-19T14:24:35.679Z,7.80
2019-05-19T14:27:30.333Z,8.37
2019-05-19T14:30:17.367Z,6.90
2019-05-19T14:33:07.377Z,9.30
2019-05-19T14:35:57.925Z,10.87
2019-05-19T14:39:05.476Z,8.40
2019-05-19T14:41:57.515Z,15.40
2019-05-19T14:44:46.826Z,17.70
2019-05-19T14:47:36.870Z,20.40
2019-05-19T14:50:28.005Z,9.73
2019-05-19T14:53:18.093Z,6.90
2019-05-19T14:56:07.943Z,12.30
2019-05-19T14:58:58.053Z,7.17
2019-05-19T15:01:47.529Z,14.40
2019-05-19T15:04:37.525Z,11.53
2019-05-19T15:07:27.594Z,8.53
2019-05-19T15:10:18.173Z,8.53
2019-05-19T15:13:07.930Z,11.90
2019-05-19T15:15:59.798Z,9.93
2019-05-19T15:18:49.645Z,8.93
2019-05-19T15:21:39.617Z,9.47
2019-05-19T15:24:29.740Z,7.27
2019-05-19T15:27:19.950Z,8.10
2019-05-19T15:30:13.978Z,6.70
2019-05-19T15:33:10.982Z,9.43
2019-05-19T15:36:00.712Z,10.40
2019-05-19T15:39:02.904Z,6.67
2019-05-19T15:41:52.869Z,8.40
2019-05-19T15:44:42.697Z,7.83
2019-05-19T15:47:32.456Z,12.60
2019-05-19T15:50:23.516Z,6.70
2019-05-19T15:53:13.731Z,7.53
2019-05-19T15:56:03.748Z,7.10
2019-05-19T15:58:53.867Z,9.07
2019-05-19T16:01:43.661Z,11.90
2019-05-19T16:04:33.631Z,8.23
2019-05-19T16:07:24.397Z,7.30
2019-05-19T16:10:15.324Z,7.03
2019-05-19T16:13:06.141Z,14.00
2019-05-19T16:15:55.976Z,9.67
2019-05-19T16:18:45.858Z,8.93
2019-05-19T16:21:35.958Z,8.23
2019-05-19T16:24:25.499Z,9.33
2019-05-19T16:27:15.374Z,8.43
2019-05-19T16:30:05.630Z,14.30
2019-05-19T16:32:55.248Z,8.47
2019-05-19T16:35:45.109Z,16.63
2019-05-19T16:38:34.882Z,12.03
2019-05-19T16:41:24.813Z,9.03
2019-05-19T16:44:14.306Z,8.40
2019-05-19T16:47:04.471Z,9.67
2019-05-19T16:49:54.708Z,7.43
2019-05-19T16:52:44.907Z,9.07
2019-05-19T16:55:35.238Z,10.10
2019-05-19T16:58:25.354Z,9.87
2019-05-19T17:01:16.065Z,7.87
2019-05-19T17:04:06.190Z,8.97
2019-05-19T17:06:56.207Z,7.70
2019-05-19T17:09:46.364Z,11.77
2019-05-19T17:12:36.263Z,7.03
2019-05-19T17:15:26.389Z,8.27
2019-05-19T17:18:16.657Z,7.77
2019-05-19T17:21:06.537Z,7.27
2019-05-19T17:23:56.539Z,7.27
2019-05-19T17:26:46.817Z,8.43
2019-05-19T17:29:36.485Z,8.67
2019-05-19T17:32:26.258Z,7.87
2019-05-19T17:35:16.950Z,6.93
2019-05-19T17:38:06.584Z,8.77
2019-05-19T17:40:56.771Z,8.67
2019-05-19T17:43:46.053Z,7.23
2019-05-19T17:46:36.243Z,7.63
2019-05-19T17:49:26.490Z,9.97
2019-05-19T17:52:16.300Z,7.07
2019-05-19T17:55:06.737Z,7.60
2019-05-19T17:57:59.004Z,6.60
2019-05-19T18:00:48.359Z,7.53
2019-05-19T18:03:39.916Z,7.73
2019-05-19T18:06:29.933Z,8.40
2019-05-19T18:09:19.081Z,6.17
2019-05-19T18:12:08.855Z,6.30
2019-05-19T18:14:59.041Z,18.40
2019-05-19T18:17:49.170Z,6.70
2019-05-19T18:20:39.173Z,6.63
2019-05-19T18:23:29.366Z,13.63
2019-05-19T18:26:19.063Z,9.97
2019-05-19T18:29:10.019Z,8.60
2019-05-19T18:32:00.584Z,8.87
2019-05-19T18:34:50.536Z,8.67
2019-05-19T18:37:40.788Z,7.90
2019-05-19T18:40:30.518Z,7.43
2019-05-19T18:43:20.725Z,10.10
2019-05-19T18:46:10.888Z,8.37
2019-05-19T18:49:00.887Z,9.37
2019-05-19T18:51:50.698Z,9.00
2019-05-19T18:54:40.350Z,16.53
2019-05-19T18:57:30.364Z,7.97
2019-05-19T19:00:39.612Z,8.67
2019-05-19T19:03:29.705Z,8.33
2019-05-19T19:06:20.186Z,10.17
2019-05-19T19:09:10.247Z,9.60
2019-05-19T19:12:00.152Z,10.50
2019-05-19T19:14:50.159Z,7.83
2019-05-19T19:17:40.370Z,9.30
2019-05-19T19:20:30.594Z,10.40
2019-05-19T19:23:21.331Z,10.73
2019-05-19T19:26:11.177Z,8.50
2019-05-19T19:29:00.847Z,8.13
2019-05-19T19:31:51.201Z,8.60
2019-05-19T19:34:41.782Z,9.27
2019-05-19T19:37:32.051Z,12.03
2019-05-19T19:40:32.282Z,12.20
2019-05-19T19:43:21.835Z,13.20
2019-05-19T19:46:11.467Z,12.73
2019-05-19T19:49:00.811Z,20.07
2019-05-19T19:51:50.835Z,27.80
2019-05-19T19:54:40.584Z,13.47
2019-05-19T19:57:30.686Z,13.17
2019-05-19T20:00:41.245Z,12.60
2019-05-19T20:03:30.735Z,10.20
2019-05-19T20:06:20.569Z,12.23
2019-05-19T20:09:10.679Z,11.90
2019-05-19T20:12:00.274Z,55.10
2019-05-19T20:14:50.233Z,29.73
2019-05-19T20:17:41.851Z,22.80
2019-05-19T20:20:31.857Z,17.10
2019-05-19T20:23:21.891Z,12.80
2019-05-19T20:26:11.711Z,13.20
2019-05-19T20:29:01.586Z,13.07
2019-05-19T20:31:51.573Z,14.20
2019-05-19T20:34:41.971Z,13.93
2019-05-19T20:37:31.955Z,15.43
2019-05-19T20:40:21.550Z,11.50
2019-05-19T20:43:11.036Z,11.33
2019-05-19T20:46:01.384Z,12.17
2019-05-19T20:48:51.633Z,13.40
2019-05-19T20:51:41.704Z,12.80
2019-05-19T20:54:31.352Z,12.73
2019-05-19T20:57:22.016Z,13.37
2019-05-19T21:00:12.062Z,11.60
2019-05-19T21:03:01.681Z,15.53
2019-05-19T21:05:51.448Z,11.70
2019-05-19T21:08:41.295Z,10.90
2019-05-19T21:11:31.703Z,11.67
2019-05-19T21:14:24.578Z,12.07
2019-05-19T21:17:14.236Z,11.40
2019-05-19T21:20:06.701Z,15.00
2019-05-19T21:22:58.765Z,14.50
2019-05-19T21:25:49.000Z,15.27
2019-05-19T21:28:39.024Z,16.07
2019-05-19T21:31:29.149Z,16.90
2019-05-19T21:34:19.456Z,11.80
2019-05-19T21:37:10.023Z,12.43
2019-05-19T21:39:59.682Z,14.83
2019-05-19T21:42:49.603Z,16.97
2019-05-19T21:45:39.936Z,13.50
2019-05-19T21:48:34.577Z,15.50
2019-05-19T21:51:24.488Z,17.77
2019-05-19T21:54:14.445Z,15.00
2019-05-19T21:57:04.760Z,13.20
2019-05-19T21:59:54.463Z,13.93
2019-05-19T22:02:45.772Z,12.80
2019-05-19T22:05:35.729Z,12.60
2019-05-19T22:08:27.299Z,12.87
2019-05-19T22:11:17.275Z,11.83
2019-05-19T22:14:07.364Z,12.93
2019-05-19T22:16:57.517Z,13.50
2019-05-19T22:19:47.241Z,11.80
2019-05-19T22:22:38.516Z,14.10
2019-05-19T22:25:28.543Z,12.70
2019-05-19T22:28:18.448Z,13.30
2019-05-19T22:31:08.256Z,12.60
2019-05-19T22:33:58.460Z,15.10
2019-05-19T22:36:48.542Z,13.87
2019-05-19T22:39:38.924Z,15.20
2019-05-19T22:42:28.849Z,15.63
2019-05-19T22:45:18.869Z,11.47
2019-05-19T22:48:09.284Z,16.90
2019-05-19T22:50:59.480Z,17.63
2019-05-19T22:53:50.018Z,13.30
2019-05-19T22:56:40.212Z,13.40
2019-05-19T22:59:29.927Z,12.70
2019-05-19T23:02:20.948Z,14.03
2019-05-19T23:05:11.463Z,14.70
2019-05-19T23:08:01.602Z,14.30
2019-05-19T23:10:51.469Z,13.70
2019-05-19T23:13:41.424Z,13.17
2019-05-19T23:16:31.831Z,12.60
2019-05-19T23:19:22.433Z,18.50
2019-05-19T23:22:11.899Z,16.40
2019-05-19T23:25:02.396Z,15.67
2019-05-19T23:27:52.684Z,15.53
2019-05-19T23:30:42.880Z,14.40
2019-05-19T23:33:33.651Z,13.83
2019-05-19T23:36:23.950Z,15.60
2019-05-19T23:39:13.956Z,14.20
2019-05-19T23:42:03.944Z,13.97
2019-05-19T23:44:54.225Z,16.07
2019-05-19T23:47:43.680Z,16.53
2019-05-19T23:50:34.098Z,13.60
2019-05-19T23:53:24.178Z,12.97
2019-05-19T23:56:13.858Z,13.73
2019-05-19T23:59:05.453Z,12.83
